Time;durP1;ratioP1;P1;durP2;ratioP2;P2;SDS_P1;SDS_P2;PMS_P1;PMS_P2;Temp;Humidity;BMP_temperature;BMP_pressure;BME280_temperature;BME280_humidity;BME280_pressure;Samples;Min_cycle;Max_cycle;Signal;HPM_P1;HPM_P2
2022/12/12 00:00:37;;;;;;;;;30.00;21.25;;;;;1.53;65.08;100203.97;6150190;23;45773;-75
2022/12/12 00:06:24;;;;;;;;;30.75;21.50;;;;;1.25;64.95;100168.13;6150004;23;45475;-74
2022/12/12 00:08:51;;;;;;;;;28.50;24.00;;;;;1.65;64.96;100231.03;6124586;23;45845;-74
2022/12/12 00:11:21;;;;;;;;;24.00;20.00;;;;;1.59;65.13;100228.72;6150537;23;45847;-77
2022/12/12 00:13:47;;;;;;;;;24.75;21.50;;;;;1.23;64.89;100164.78;6123496;23;45554;-75
2022/12/12 00:16:13;;;;;;;;;24.25;22.00;;;;;1.65;64.90;100225.88;6147584;23;47548;-74
2022/12/12 00:18:39;;;;;;;;;28.25;26.00;;;;;1.55;64.61;100214.25;6150020;23;46717;-73
2022/12/12 00:21:10;;;;;;;;;29.00;23.00;;;;;1.67;64.74;100231.84;6149144;23;45796;-74
2022/12/12 00:23:35;;;;;;;;;30.75;25.50;;;;;1.50;65.50;100200.69;6149648;23;45589;-75
2022/12/12 00:26:04;;;;;;;;;21.25;18.50;;;;;1.66;65.45;100219.81;6149509;23;46315;-74
2022/12/12 00:28:31;;;;;;;;;27.75;21.50;;;;;1.59;64.94;100215.81;6150030;23;46305;-74
2022/12/12 00:30:57;;;;;;;;;23.75;19.50;;;;;1.68;64.63;100223.16;6149352;23;45660;-75
2022/12/12 00:36:51;;;;;;;;;28.00;22.00;;;;;1.71;65.46;100233.38;6151568;23;45974;-75
2022/12/12 00:39:18;;;;;;;;;27.75;25.50;;;;;1.13;64.90;100142.00;6150247;23;46200;-75
2022/12/12 00:41:43;;;;;;;;;24.75;21.00;;;;;1.62;65.16;100234.56;6149694;23;45782;-75
2022/12/12 00:44:09;;;;;;;;;24.00;17.75;;;;;1.66;65.27;100236.16;6150631;23;45970;-73
2022/12/12 00:46:34;;;;;;;;;23.75;20.00;;;;;1.67;65.20;100242.97;6124010;23;47978;-74
2022/12/12 00:49:00;;;;;;;;;25.25;20.50;;;;;1.37;65.30;100192.59;6123520;23;45860;-75
2022/12/12 00:51:28;;;;;;;;;21.50;19.25;;;;;1.64;65.26;100237.94;6149359;23;45498;-72
2022/12/12 00:53:57;;;;;;;;;28.00;22.50;;;;;1.64;65.53;100234.53;6150564;23;45734;-75
2022/12/12 00:56:24;;;;;;;;;21.75;17.00;;;;;1.56;64.93;100227.09;6149526;23;46263;-74
2022/12/12 00:58:51;;;;;;;;;25.25;21.75;;;;;1.65;65.88;100249.13;6149758;23;46024;-74
2022/12/12 01:01:22;;;;;;;;;24.25;21.25;;;;;1.58;65.75;100232.19;6149984;23;45495;-76
2022/12/12 01:03:47;;;;;;;;;24.50;18.50;;;;;1.65;65.14;100243.94;6124319;23;45951;-74
2022/12/12 01:06:14;;;;;;;;;27.00;19.50;;;;;1.62;65.22;100239.72;6149756;23;45668;-74
2022/12/12 01:08:46;;;;;;;;;23.75;19.50;;;;;1.61;65.46;100232.91;6123028;23;47172;-75
2022/12/12 01:11:13;;;;;;;;;27.75;20.50;;;;;1.67;65.26;100242.97;6150001;23;45795;-74
2022/12/12 01:13:39;;;;;;;;;23.25;20.00;;;;;1.66;65.03;100240.47;6150625;23;45361;-75
2022/12/12 01:16:08;;;;;;;;;21.00;15.00;;;;;1.07;65.55;100140.50;6150129;23;45534;-75
2022/12/12 01:18:34;;;;;;;;;27.25;20.50;;;;;1.68;65.27;100246.41;6149528;23;46057;-74
2022/12/12 01:21:00;;;;;;;;;13.75;10.75;;;;;1.68;65.83;100236.06;6149108;23;45628;-73
2022/12/12 01:23:30;;;;;;;;;22.75;18.75;;;;;1.73;65.47;100243.66;6123338;23;45625;-75
2022/12/12 01:26:23;;;;;;;;;18.75;16.75;;;;;1.67;65.14;100227.47;6123712;23;45575;-75
2022/12/12 01:28:52;;;;;;;;;25.00;19.00;;;;;1.66;65.13;100228.41;6145348;23;46099;-75
2022/12/12 01:31:18;;;;;;;;;17.00;13.50;;;;;1.80;65.76;100247.63;6149084;23;45509;-73
2022/12/12 01:33:44;;;;;;;;;19.50;18.00;;;;;1.80;65.51;100251.06;6123075;23;45628;-73
2022/12/12 01:36:18;;;;;;;;;22.00;18.75;;;;;1.63;65.66;100228.50;6149832;23;45477;-74
2022/12/12 01:38:47;;;;;;;;;18.00;15.25;;;;;1.81;65.95;100252.75;6150498;23;46395;-75
2022/12/12 01:41:13;;;;;;;;;19.00;17.25;;;;;1.81;65.36;100257.06;6150180;23;45643;-73
2022/12/12 01:43:42;;;;;;;;;25.50;16.50;;;;;1.66;65.12;100236.16;6123821;23;45522;-75
2022/12/12 01:46:38;;;;;;;;;21.00;14.50;;;;;1.77;65.66;100255.53;6123189;23;47529;-74
2022/12/12 01:49:12;;;;;;;;;18.50;17.00;;;;;1.80;65.43;100256.22;6149290;23;45715;-75
2022/12/12 01:51:40;;;;;;;;;18.25;15.50;;;;;1.80;65.73;100250.22;6149330;23;45692;-74
2022/12/12 01:54:15;;;;;;;;;12.75;9.50;;;;;1.66;65.25;100227.56;6150307;23;45537;-74
2022/12/12 01:56:43;;;;;;;;;19.50;15.25;;;;;1.62;65.72;100232.00;6122921;23;47397;-75
2022/12/12 01:59:12;;;;;;;;;23.50;14.50;;;;;1.79;65.27;100254.53;6150103;23;45889;-74
2022/12/12 02:01:39;;;;;;;;;16.50;13.50;;;;;1.80;65.23;100255.38;6122745;23;45610;-73
2022/12/12 02:04:07;;;;;;;;;22.25;18.50;;;;;1.79;65.59;100251.13;6149200;23;45504;-75
2022/12/12 02:06:34;;;;;;;;;22.50;16.00;;;;;1.76;65.04;100246.94;6123982;23;45574;-75
2022/12/12 02:09:08;;;;;;;;;20.50;18.75;;;;;1.77;65.42;100245.19;6150095;23;46209;-74
2022/12/12 02:11:40;;;;;;;;;14.75;7.00;;;;;1.76;65.25;100251.25;6149788;23;45821;-75
2022/12/12 02:14:05;;;;;;;;;16.50;15.25;;;;;1.82;65.41;100256.19;6149787;23;45451;-73
2022/12/12 02:16:49;;;;;;;;;22.75;18.50;;;;;1.80;65.01;100251.06;6149285;23;47094;-75
2022/12/12 02:19:39;;;;;;;;;20.25;17.00;;;;;1.80;65.29;100255.38;6150109;23;46006;-73
2022/12/12 02:22:34;;;;;;;;;20.50;16.00;;;;;1.79;65.70;100251.97;6147827;23;45610;-75
2022/12/12 02:25:51;;;;;;;;;16.50;15.25;;;;;1.79;65.43;100251.13;6001432;23;45635;-74
2022/12/12 02:28:43;;;;;;;;;17.00;14.00;;;;;1.72;65.27;100253.13;5916860;24;45868;-73
2022/12/12 02:31:20;;;;;;;;;16.75;13.50;;;;;1.41;65.43;100196.72;5916039;23;47028;-73
2022/12/12 02:37:13;;;;;;;;;19.25;15.50;;;;;1.75;65.48;100247.84;5917521;24;45970;-74
2022/12/12 02:39:50;;;;;;;;;21.25;15.00;;;;;1.78;65.38;100249.47;5917022;24;46266;-75
2022/12/12 02:42:20;;;;;;;;;25.75;18.75;;;;;1.77;65.52;100250.38;5916416;24;46118;-74
2022/12/12 02:44:58;;;;;;;;;22.50;17.00;;;;;1.81;65.27;100259.66;5916555;24;45598;-73
2022/12/12 02:47:32;;;;;;;;;24.50;22.50;;;;;1.81;65.35;100262.25;5917042;23;45554;-74
2022/12/12 02:50:03;;;;;;;;;24.25;18.50;;;;;1.81;64.76;100255.34;5916614;23;46514;-75
2022/12/12 02:52:37;;;;;;;;;18.25;14.25;;;;;1.75;65.28;100247.84;5917216;24;45509;-75
2022/12/12 02:55:05;;;;;;;;;20.75;18.75;;;;;1.81;65.18;100257.06;5916732;24;45889;-75
2022/12/12 02:57:32;;;;;;;;;22.00;15.75;;;;;1.81;65.53;100255.34;5917119;24;45522;-74
2022/12/12 03:00:04;;;;;;;;;20.25;17.00;;;;;1.82;65.01;100256.19;5917052;24;45499;-75
2022/12/12 03:09:01;;;;;;;;;32.00;21.25;;;;;1.85;64.95;100249.13;6087575;23;45541;-73
2022/12/12 03:12:00;;;;;;;;;14.75;11.25;;;;;1.86;64.75;100237.06;6086625;23;47710;-75
2022/12/12 03:14:46;;;;;;;;;18.00;15.00;;;;;1.85;65.23;100249.13;6086867;23;45943;-73
2022/12/12 03:17:50;;;;;;;;;22.00;16.25;;;;;1.81;64.83;100242.44;6087056;23;45748;-73
2022/12/12 03:23:56;;;;;;;;;18.50;15.50;;;;;1.83;64.61;100235.47;5970608;23;45884;-73
2022/12/12 03:26:35;;;;;;;;;20.00;15.00;;;;;1.85;65.24;100232.78;5972711;23;45954;-74
2022/12/12 03:29:23;;;;;;;;;20.00;15.25;;;;;1.79;65.21;100223.56;5949990;23;46050;-74
2022/12/12 03:31:55;;;;;;;;;18.00;15.50;;;;;1.71;64.34;100214.47;5974025;23;45536;-74
2022/12/12 03:37:52;;;;;;;;;20.00;18.00;;;;;1.84;64.73;100237.13;5973431;23;46101;-73
2022/12/12 03:40:50;;;;;;;;;18.25;16.00;;;;;1.86;64.48;100248.25;6020081;23;45833;-73
2022/12/12 03:43:31;;;;;;;;;10.25;6.75;;;;;1.84;65.28;100244.03;5978381;23;45801;-75
2022/12/12 03:46:08;;;;;;;;;23.25;15.50;;;;;1.71;65.15;100228.22;6001509;23;45644;-73
2022/12/12 03:52:01;;;;;;;;;17.00;12.50;;;;;1.84;64.88;100257.78;6050753;23;45929;-74
2022/12/12 03:54:35;;;;;;;;;15.25;12.25;;;;;1.86;64.99;100255.13;6059103;23;45681;-74
2022/12/12 03:57:17;;;;;;;;;18.75;16.50;;;;;1.86;64.83;100261.16;6058571;23;47589;-74
2022/12/12 03:59:48;;;;;;;;;16.50;12.00;;;;;1.91;64.94;100264.38;6059631;23;46297;-74
2022/12/12 04:02:37;;;;;;;;;19.50;13.50;;;;;1.87;65.04;100244.75;6059902;23;45854;-75
2022/12/12 04:08:25;;;;;;;;;17.25;16.00;;;;;1.95;64.79;100265.09;6059386;23;45638;-75
2022/12/12 04:14:17;;;;;;;;;24.00;20.25;;;;;1.97;64.51;100271.03;6059106;23;45738;-73
2022/12/12 04:16:45;;;;;;;;;16.75;13.00;;;;;1.92;65.12;100260.91;6012344;23;45808;-75
2022/12/12 04:23:14;;;;;;;;;18.00;15.00;;;;;1.95;65.01;100270.25;6067363;23;45867;-74
2022/12/12 04:25:11;;;;;;;;;18.50;16.00;;;;;1.97;64.83;100271.03;6150410;23;45523;-74
2022/12/12 04:27:46;;;;;;;;;18.00;15.75;;;;;1.96;64.83;100272.78;6150094;23;45687;-73
2022/12/12 04:30:14;;;;;;;;;21.00;17.50;;;;;2.01;64.63;100275.16;6148393;23;47598;-74
2022/12/12 04:32:49;;;;;;;;;23.00;19.00;;;;;2.00;65.04;100276.91;6150263;23;45929;-74
2022/12/12 04:35:21;;;;;;;;;24.75;21.00;;;;;2.04;64.57;100277.63;6150024;23;45444;-75
2022/12/12 04:37:51;;;;;;;;;21.75;15.75;;;;;2.00;64.40;100264.00;6122825;23;45594;-74
2022/12/12 04:40:30;;;;;;;;;18.00;15.50;;;;;2.07;64.91;100277.50;6150451;23;46456;-75
2022/12/12 04:43:01;;;;;;;;;20.50;16.75;;;;;2.08;64.50;100284.34;6150326;23;46120;-75
2022/12/12 04:45:32;;;;;;;;;22.50;18.00;;;;;2.01;64.54;100264.84;6149716;23;45775;-76
2022/12/12 04:47:59;;;;;;;;;22.75;18.50;;;;;2.03;64.89;100271.63;6150527;23;45678;-74
2022/12/12 04:50:30;;;;;;;;;16.25;15.50;;;;;2.09;64.41;100281.72;6149264;23;47253;-74
2022/12/12 04:52:59;;;;;;;;;23.25;17.75;;;;;2.09;64.92;100273.97;6150110;23;46418;-74
2022/12/12 04:55:34;;;;;;;;;24.00;16.50;;;;;2.12;64.59;100280.72;6150185;23;45818;-75
2022/12/12 04:58:01;;;;;;;;;26.75;19.25;;;;;2.10;64.50;100267.91;6123270;23;45423;-75
2022/12/12 05:00:32;;;;;;;;;16.00;12.50;;;;;2.11;64.51;100271.28;6149096;23;46449;-74
2022/12/12 05:03:14;;;;;;;;;22.00;18.75;;;;;2.14;64.97;100278.09;6123195;23;46111;-74
2022/12/12 05:06:03;;;;;;;;;21.25;15.25;;;;;2.14;65.08;100273.75;6150021;23;45604;-74
2022/12/12 05:08:33;;;;;;;;;24.00;18.50;;;;;2.15;64.76;100272.03;6001278;23;45739;-74
2022/12/12 05:11:00;;;;;;;;;19.00;15.50;;;;;2.15;64.63;100272.88;6001547;23;46260;-74
2022/12/12 05:13:35;;;;;;;;;23.75;18.50;;;;;2.19;64.82;100279.56;5977518;23;46413;-75
2022/12/12 05:16:15;;;;;;;;;25.25;19.00;;;;;2.16;64.53;100271.13;6002454;23;45750;-75
2022/12/12 05:19:01;;;;;;;;;22.25;19.50;;;;;2.22;64.48;100278.59;6001283;23;45513;-75
2022/12/12 05:21:27;;;;;;;;;20.00;18.00;;;;;2.11;64.49;100263.53;6000705;23;45509;-73
2022/12/12 05:23:52;;;;;;;;;25.50;16.50;;;;;2.23;64.55;100288.88;6026478;23;46996;-75
2022/12/12 05:26:23;;;;;;;;;24.00;14.25;;;;;2.16;64.48;100264.19;6029726;23;45783;-75
2022/12/12 05:28:49;;;;;;;;;21.25;18.25;;;;;2.21;64.72;100270.03;6030623;23;45649;-75
2022/12/12 05:31:15;;;;;;;;;22.50;16.00;;;;;2.22;64.93;100274.25;6029695;23;46522;-72
2022/12/12 05:33:44;;;;;;;;;22.50;16.00;;;;;2.21;64.93;100259.69;6030119;23;47077;-75
2022/12/12 05:36:16;;;;;;;;;21.50;17.50;;;;;1.98;64.38;100227.06;6006543;23;45572;-74
2022/12/12 05:38:42;;;;;;;;;21.00;16.00;;;;;1.99;64.25;100226.16;6030746;23;45825;-73
2022/12/12 05:41:10;;;;;;;;;22.50;17.00;;;;;1.87;64.59;100210.34;6029944;23;46459;-74
2022/12/12 05:43:36;;;;;;;;;18.75;16.50;;;;;1.55;64.97;100155.72;6030845;23;47201;-73
2022/12/12 05:46:04;;;;;;;;;21.50;16.25;;;;;1.97;64.71;100229.72;6081188;23;45633;-74
2022/12/12 05:48:30;;;;;;;;;29.75;21.00;;;;;1.98;64.82;100221.06;6148629;23;45431;-76
2022/12/12 05:51:03;;;;;;;;;21.25;18.50;;;;;1.61;64.74;100168.38;6123418;23;46386;-75
2022/12/12 05:53:29;;;;;;;;;24.75;20.50;;;;;2.22;64.60;100270.84;6150647;23;46293;-74
2022/12/12 05:56:00;;;;;;;;;23.25;13.75;;;;;2.26;64.50;100273.25;6124137;23;45526;-75
2022/12/12 05:58:29;;;;;;;;;24.00;16.00;;;;;1.97;64.43;100238.31;6125613;23;45678;-75
2022/12/12 06:00:54;;;;;;;;;24.50;19.75;;;;;2.17;64.52;100259.84;6150365;23;47486;-75
2022/12/12 06:03:19;;;;;;;;;23.25;21.00;;;;;1.64;64.21;100169.97;6123491;23;46720;-74
2022/12/12 06:05:45;;;;;;;;;19.50;16.25;;;;;2.19;64.44;100271.81;6123413;23;45594;-75
2022/12/12 06:08:12;;;;;;;;;19.50;17.00;;;;;2.07;64.37;100247.34;6150084;23;45445;-73
2022/12/12 06:10:38;;;;;;;;;20.50;17.75;;;;;2.31;64.67;100286.81;6149229;23;46366;-74
2022/12/12 06:13:04;;;;;;;;;19.50;16.00;;;;;2.30;64.60;100279.97;6149111;23;45913;-75
2022/12/12 06:15:29;;;;;;;;;17.75;15.25;;;;;2.07;64.40;100246.50;6098790;23;45560;-74
2022/12/12 06:17:57;;;;;;;;;22.50;18.75;;;;;2.26;64.69;100275.84;6122900;23;45564;-74
2022/12/12 06:20:22;;;;;;;;;28.25;20.50;;;;;2.10;64.18;100257.56;6122849;23;46564;-74
2022/12/12 06:22:48;;;;;;;;;17.50;16.75;;;;;2.21;64.45;100280.38;6149044;23;45724;-74
2022/12/12 06:25:14;;;;;;;;;20.75;17.00;;;;;2.19;64.71;100281.31;6122712;23;45803;-74
2022/12/12 06:27:39;;;;;;;;;23.00;15.00;;;;;2.14;64.16;100278.09;6148457;23;45643;-74
2022/12/12 06:30:08;;;;;;;;;19.50;17.50;;;;;2.17;64.13;100290.88;6149048;23;46407;-74
2022/12/12 06:32:37;;;;;;;;;25.50;17.00;;;;;1.82;64.35;100230.34;6122144;23;46095;-75
2022/12/12 06:35:05;;;;;;;;;21.25;16.50;;;;;2.12;64.41;100301.41;6146094;23;45672;-75
2022/12/12 06:40:53;;;;;;;;;26.50;20.50;;;;;1.93;64.01;100267.75;6150193;23;45561;-73
2022/12/12 06:43:21;;;;;;;;;24.25;21.00;;;;;2.11;64.29;100291.97;6148781;23;46936;-75
2022/12/12 06:45:47;;;;;;;;;28.25;21.50;;;;;2.11;64.29;100289.38;6149025;23;45749;-74
2022/12/12 06:48:13;;;;;;;;;25.75;20.00;;;;;1.92;64.59;100248.00;6122578;23;45756;-74
2022/12/12 06:50:39;;;;;;;;;22.50;18.00;;;;;1.71;64.25;100217.03;6121193;23;47480;-75
2022/12/12 06:56:26;;;;;;;;;27.75;21.00;;;;;2.09;64.75;100288.63;6148816;23;45897;-74
2022/12/12 06:58:53;;;;;;;;;26.75;22.75;;;;;2.11;64.16;100279.88;6148813;23;45437;-75
2022/12/12 07:01:21;;;;;;;;;25.50;17.00;;;;;2.17;64.62;100283.97;6149190;23;46853;-76
2022/12/12 07:03:50;;;;;;;;;27.00;22.50;;;;;2.19;64.30;100270.97;6124656;23;45746;-74
2022/12/12 07:06:21;;;;;;;;;22.25;15.50;;;;;2.18;64.47;100264.13;6150355;23;45489;-76
2022/12/12 07:08:47;;;;;;;;;23.00;19.75;;;;;2.16;64.73;100266.78;6150121;23;45607;-76
2022/12/12 07:11:17;;;;;;;;;29.50;18.25;;;;;2.15;64.65;100259.94;6123304;23;47120;-74
2022/12/12 07:13:43;;;;;;;;;23.75;20.50;;;;;2.13;64.93;100266.91;6149035;23;47002;-75
2022/12/12 07:16:09;;;;;;;;;26.50;20.00;;;;;2.11;64.34;100274.72;6150282;23;45670;-74
2022/12/12 07:18:34;;;;;;;;;24.50;20.25;;;;;2.15;64.60;100285.78;6149804;23;45791;-75
2022/12/12 07:21:04;;;;;;;;;17.50;16.50;;;;;2.10;64.41;100287.72;6149756;23;45636;-74
2022/12/12 07:27:05;;;;;;;;;22.25;20.50;;;;;2.14;64.14;100303.94;6145635;23;45619;-76
2022/12/12 07:29:31;;;;;;;;;26.50;18.25;;;;;2.14;64.65;100307.34;6149873;23;45720;-75
2022/12/12 07:31:57;;;;;;;;;24.75;20.00;;;;;2.07;64.22;100298.16;6149495;23;46441;-75
2022/12/12 07:34:22;;;;;;;;;25.50;21.25;;;;;2.14;64.30;100311.69;6150073;23;46214;-74
2022/12/12 07:36:48;;;;;;;;;8.00;8.00;;;;;2.12;64.60;100306.56;6149404;23;45587;-75
2022/12/12 07:39:13;;;;;;;;;26.00;19.00;;;;;2.13;64.35;100310.84;6149879;23;45907;-75
2022/12/12 07:41:39;;;;;;;;;21.75;18.25;;;;;2.12;65.17;100316.91;6150429;23;46230;-72
2022/12/12 07:44:04;;;;;;;;;23.75;19.00;;;;;2.11;64.23;100305.72;6150100;23;45553;-74
2022/12/12 07:46:29;;;;;;;;;24.50;20.25;;;;;2.13;64.88;100302.25;6149125;23;45523;-72
2022/12/12 07:48:56;;;;;;;;;24.50;17.00;;;;;2.10;64.72;100293.72;6150178;23;45485;-72
2022/12/12 07:51:21;;;;;;;;;24.75;18.75;;;;;2.13;64.24;100307.41;6148877;23;46499;-72
2022/12/12 07:57:08;;;;;;;;;28.00;21.75;;;;;2.15;64.56;100316.78;6149713;23;45779;-74
2022/12/12 07:59:34;;;;;;;;;30.50;23.75;;;;;2.15;64.51;100308.19;6149480;23;45970;-74
2022/12/12 08:01:59;;;;;;;;;24.75;23.00;;;;;2.13;64.27;100305.66;6149347;23;46088;-72
2022/12/12 08:04:25;;;;;;;;;28.75;21.00;;;;;2.09;64.59;100317.88;6149926;23;45609;-74
2022/12/12 08:06:50;;;;;;;;;27.75;21.00;;;;;2.15;64.21;100329.72;6150057;23;45546;-74
2022/12/12 08:09:17;;;;;;;;;27.75;22.00;;;;;2.11;64.07;100328.13;6149793;23;45612;-73
2022/12/12 08:11:42;;;;;;;;;29.25;24.00;;;;;2.17;63.99;100337.38;6149904;23;45619;-74
2022/12/12 08:14:08;;;;;;;;;22.50;18.50;;;;;2.16;64.04;100325.38;6149790;23;45592;-72
2022/12/12 08:16:33;;;;;;;;;19.00;18.25;;;;;2.18;64.34;100333.91;6122876;23;45484;-77
2022/12/12 08:18:59;;;;;;;;;27.75;22.50;;;;;2.16;63.95;100335.72;6149900;23;45476;-74
2022/12/12 08:21:26;;;;;;;;;23.75;19.25;;;;;2.09;63.91;100317.03;6149265;23;46570;-71
2022/12/12 08:27:14;;;;;;;;;24.00;19.75;;;;;2.10;63.96;100314.41;6147654;23;45817;-72
2022/12/12 08:29:39;;;;;;;;;23.00;19.00;;;;;2.16;63.81;100323.63;6150415;23;45690;-72
2022/12/12 08:32:05;;;;;;;;;21.75;19.00;;;;;2.11;64.34;100328.97;6149124;23;45531;-73
2022/12/12 08:34:30;;;;;;;;;29.00;23.00;;;;;2.14;63.92;100333.19;6123623;23;45691;-72
2022/12/12 08:36:56;;;;;;;;;27.75;22.50;;;;;2.17;64.21;100342.53;6149332;23;45589;-73
2022/12/12 08:42:43;;;;;;;;;23.75;20.00;;;;;2.14;64.62;100340.09;6150347;23;45494;-72
2022/12/12 08:45:09;;;;;;;;;27.75;20.00;;;;;2.17;64.01;100363.22;6150518;23;45584;-71
2022/12/12 08:47:34;;;;;;;;;27.50;22.50;;;;;2.15;63.65;100352.13;6149760;23;45616;-71
2022/12/12 08:49:59;;;;;;;;;28.00;24.75;;;;;2.22;64.25;100362.13;6149788;23;45753;-72
2022/12/12 08:52:25;;;;;;;;;23.00;19.00;;;;;2.25;63.80;100369.78;6149334;23;47223;-72
2022/12/12 08:54:53;;;;;;;;;32.50;25.50;;;;;2.19;63.68;100344.19;6148209;23;46239;-72
2022/12/12 08:57:18;;;;;;;;;31.00;22.50;;;;;2.04;63.50;100322.41;6149427;23;45518;-74
2022/12/12 08:59:44;;;;;;;;;30.25;25.00;;;;;2.30;63.40;100362.66;6123526;23;45720;-74
2022/12/12 09:02:12;;;;;;;;;8.00;4.00;;;;;2.14;63.82;100353.84;6149094;23;47285;-73
2022/12/12 09:04:40;;;;;;;;;27.25;26.00;;;;;1.86;63.31;100315.38;6148885;23;46429;-74
2022/12/12 09:07:08;;;;;;;;;29.00;23.00;;;;;2.25;63.44;100377.53;6122321;23;45530;-74
2022/12/12 09:12:55;;;;;;;;;23.50;20.00;;;;;2.24;63.39;100372.41;6148762;23;45516;-73
2022/12/12 09:15:21;;;;;;;;;30.50;21.75;;;;;2.23;63.31;100365.56;6148525;23;46925;-72
2022/12/12 09:17:46;;;;;;;;;39.00;29.50;;;;;2.25;63.74;100374.94;6148619;23;45735;-73
2022/12/12 09:20:12;;;;;;;;;28.00;23.00;;;;;2.20;63.96;100353.63;6149104;23;45794;-74
2022/12/12 09:22:37;;;;;;;;;34.00;24.25;;;;;2.24;63.40;100352.56;6148891;23;46217;-74
2022/12/12 09:25:04;;;;;;;;;32.00;29.00;;;;;2.30;63.63;100351.47;6148853;23;45995;-74
2022/12/12 09:27:30;;;;;;;;;29.50;25.00;;;;;2.29;63.81;100348.06;6149062;23;45799;-73
2022/12/12 09:29:55;;;;;;;;;25.75;22.50;;;;;2.25;63.52;100333.59;6149811;23;45482;-73
2022/12/12 09:32:21;;;;;;;;;30.25;26.00;;;;;2.25;63.82;100328.44;6148869;23;47548;-73
2022/12/12 09:34:47;;;;;;;;;29.00;24.25;;;;;2.39;63.60;100349.34;6122681;23;47323;-73
2022/12/12 09:37:12;;;;;;;;;40.00;23.25;;;;;2.39;63.22;100349.34;6149584;23;45673;-74
2022/12/12 09:42:59;;;;;;;;;26.75;23.75;;;;;2.32;63.35;100347.91;6149448;23;45628;-74
2022/12/12 09:45:25;;;;;;;;;26.50;22.50;;;;;2.41;62.97;100355.31;6148693;23;47185;-74
2022/12/12 09:47:58;;;;;;;;;27.00;24.50;;;;;2.42;63.51;100356.16;6149664;23;45503;-73
2022/12/12 09:50:26;;;;;;;;;34.00;22.50;;;;;2.46;63.48;100353.38;6123467;23;45636;-74
2022/12/12 09:52:56;;;;;;;;;31.50;26.75;;;;;2.47;63.21;100354.22;6148767;23;47123;-74
2022/12/12 09:55:40;;;;;;;;;33.00;29.50;;;;;2.50;62.81;100354.06;6149581;23;46327;-73
2022/12/12 09:58:29;;;;;;;;;18.00;15.00;;;;;2.50;63.09;100354.91;6149742;23;45819;-72
2022/12/12 10:00:57;;;;;;;;;32.75;25.75;;;;;2.51;63.06;100351.44;6149683;23;45505;-73
2022/12/12 10:03:41;;;;;;;;;32.50;27.25;;;;;2.52;63.06;100353.13;6149855;23;45689;-74
2022/12/12 10:06:10;;;;;;;;;33.75;24.75;;;;;2.53;62.63;100341.88;6149290;23;45853;-73
2022/12/12 10:09:06;;;;;;;;;27.50;25.75;;;;;2.57;62.89;100344.31;6149572;23;45796;-73
2022/12/12 10:11:49;;;;;;;;;33.75;25.50;;;;;2.54;62.72;100334.94;6149315;23;45456;-72
2022/12/12 10:14:20;;;;;;;;;40.25;26.75;;;;;2.61;62.78;100330.34;6149100;23;46478;-73
2022/12/12 10:16:47;;;;;;;;;36.50;29.00;;;;;2.62;62.82;100325.13;6122699;23;45941;-74
2022/12/12 10:19:22;;;;;;;;;38.75;30.75;;;;;2.59;62.99;100311.50;6149522;23;45606;-71
2022/12/12 10:21:51;;;;;;;;;39.25;30.00;;;;;2.66;62.42;100321.50;6149885;23;45604;-72
2022/12/12 10:24:23;;;;;;;;;30.75;26.00;;;;;2.69;62.73;100318.78;6150108;23;45529;-75
2022/12/12 10:26:48;;;;;;;;;30.00;24.25;;;;;2.69;62.21;100312.78;6148735;23;46456;-73
2022/12/12 10:29:23;;;;;;;;;34.50;27.50;;;;;2.73;61.83;100324.66;6149175;23;45621;-73
2022/12/12 10:32:18;;;;;;;;;31.00;24.75;;;;;2.68;61.75;100316.25;6148482;23;45800;-72
2022/12/12 10:34:46;;;;;;;;;32.25;27.00;;;;;2.62;62.37;100330.28;6148373;23;46606;-74
2022/12/12 10:37:38;;;;;;;;;32.25;27.50;;;;;2.57;62.11;100331.41;6148276;23;47240;-74
2022/12/12 10:40:41;;;;;;;;;32.50;27.50;;;;;2.60;62.13;100350.19;6148620;23;45490;-74
2022/12/12 10:43:22;;;;;;;;;35.75;30.00;;;;;2.62;62.40;100347.53;6058148;23;45784;-73
2022/12/12 10:46:27;;;;;;;;;40.00;35.50;;;;;2.62;62.31;100329.44;6057802;23;46570;-73
2022/12/12 10:48:53;;;;;;;;;43.25;35.25;;;;;2.60;62.45;100311.41;6028966;23;46126;-74
2022/12/12 10:51:21;;;;;;;;;47.75;36.00;;;;;2.53;62.40;100299.66;6028365;23;45760;-72
2022/12/12 10:57:13;;;;;;;;;33.25;29.75;;;;;2.73;62.03;100312.56;6029293;23;45942;-71
2022/12/12 10:59:44;;;;;;;;;38.75;32.25;;;;;2.72;62.12;100315.22;6029175;23;45532;-73
2022/12/12 11:02:21;;;;;;;;;42.25;28.25;;;;;2.72;61.91;100308.28;6029516;23;45912;-73
2022/12/12 11:04:46;;;;;;;;;30.25;26.50;;;;;2.75;61.82;100309.91;6029098;23;45669;-72
2022/12/12 11:07:20;;;;;;;;;33.50;27.00;;;;;2.75;61.67;100290.06;6029397;23;45658;-72
2022/12/12 11:13:09;;;;;;;;;44.75;33.75;;;;;2.77;61.59;100269.28;6038937;23;45957;-70
2022/12/12 11:15:48;;;;;;;;;33.50;30.50;;;;;2.77;61.78;100270.13;6086260;23;45750;-73
2022/12/12 11:18:17;;;;;;;;;29.50;26.75;;;;;2.79;61.30;100270.91;6086786;23;45533;-73
2022/12/12 11:21:05;;;;;;;;;39.75;29.50;;;;;2.81;61.33;100255.31;6087140;23;46183;-72
2022/12/12 11:23:32;;;;;;;;;38.25;31.75;;;;;2.79;61.42;100245.06;6093503;23;45879;-73
2022/12/12 11:29:38;;;;;;;;;31.50;27.25;;;;;2.82;61.10;100251.81;6143846;23;45669;-71
2022/12/12 11:32:10;;;;;;;;;33.50;25.00;;;;;2.81;60.92;100232.03;6147619;23;47015;-71
2022/12/12 11:34:39;;;;;;;;;37.50;31.50;;;;;2.77;61.29;100226.16;6147861;23;45403;-72
2022/12/12 11:37:04;;;;;;;;;26.00;23.75;;;;;2.79;60.88;100239.03;6147996;23;45533;-72
2022/12/12 11:39:42;;;;;;;;;38.25;29.75;;;;;2.75;61.36;100233.19;6148164;23;45573;-73
2022/12/12 11:42:14;;;;;;;;;27.25;21.00;;;;;2.81;60.87;100229.44;6121421;23;48492;-73
2022/12/12 11:44:41;;;;;;;;;33.75;26.75;;;;;2.81;61.13;100234.63;6148583;23;45748;-74
2022/12/12 11:47:24;;;;;;;;;28.25;26.50;;;;;2.85;61.02;100229.25;6148456;23;45697;-73
2022/12/12 11:49:59;;;;;;;;;28.00;22.50;;;;;2.83;60.67;100209.53;6149624;23;45570;-73
2022/12/12 11:52:31;;;;;;;;;24.75;22.25;;;;;2.89;60.63;100222.19;6149706;23;46301;-72
2022/12/12 11:54:57;;;;;;;;;30.00;27.00;;;;;2.89;60.63;100224.78;6149173;23;45663;-73
2022/12/12 11:57:23;;;;;;;;;25.75;22.50;;;;;2.87;60.46;100227.41;6148009;23;45944;-74
2022/12/12 11:59:53;;;;;;;;;32.67;27.00;;;;;2.88;60.08;100236.88;6149069;23;46238;-74
2022/12/12 12:02:50;;;;;;;;;33.50;26.50;;;;;2.87;60.45;100229.16;6149157;23;46276;-74
2022/12/12 12:05:27;;;;;;;;;33.75;29.50;;;;;2.89;60.58;100227.38;6149647;23;45534;-72
2022/12/12 12:08:07;;;;;;;;;31.00;25.25;;;;;2.89;60.77;100217.00;6150351;23;45455;-72
2022/12/12 12:11:05;;;;;;;;;35.25;30.00;;;;;2.88;60.56;100221.34;6148830;23;46436;-74
2022/12/12 12:13:49;;;;;;;;;33.00;28.00;;;;;2.89;60.38;100222.19;6148228;23;46122;-74
2022/12/12 12:16:32;;;;;;;;;30.75;27.00;;;;;2.88;60.56;100208.41;6148205;23;45478;-72
2022/12/12 12:19:05;;;;;;;;;30.50;26.50;;;;;2.87;60.16;100208.47;6149065;23;45633;-73
2022/12/12 12:22:02;;;;;;;;;39.00;30.50;;;;;2.86;60.48;100214.59;6148987;23;45931;-73
2022/12/12 12:27:44;;;;;;;;;28.75;24.75;;;;;2.84;60.55;100203.47;6058148;23;45747;-72
2022/12/12 12:30:22;;;;;;;;;34.50;29.00;;;;;2.89;60.24;100206.66;6058052;23;45796;-73
2022/12/12 12:32:50;;;;;;;;;30.75;23.75;;;;;2.91;60.22;100200.53;6058529;23;46847;-74
2022/12/12 12:35:41;;;;;;;;;37.00;29.75;;;;;2.94;60.16;100202.13;6058706;23;46482;-73
2022/12/12 12:38:42;;;;;;;;;49.75;29.75;;;;;2.95;60.28;100198.63;6059104;23;45810;-73
2022/12/12 12:44:35;;;;;;;;;39.50;34.25;;;;;2.97;60.23;100167.53;6058823;23;45981;-71
2022/12/12 12:47:20;;;;;;;;;31.25;27.25;;;;;2.97;59.88;100166.59;6057668;23;46400;-72
2022/12/12 12:49:53;;;;;;;;;26.75;22.25;;;;;3.00;60.20;100170.78;6034998;23;45567;-73
2022/12/12 12:52:34;;;;;;;;;30.50;25.00;;;;;3.02;60.38;100173.31;6059072;23;45497;-72
2022/12/12 12:54:59;;;;;;;;;29.50;26.75;;;;;3.00;60.39;100157.00;6058106;23;46725;-73
2022/12/12 12:57:38;;;;;;;;;32.50;26.00;;;;;3.02;60.37;100174.16;6058923;23;45749;-72